Snow/Ice From: 17-12-2017 10:00 Until: 18-12-2017 06:00 warning for: Snow/Ice Level: Yellow info button

Although rather usual in this region, locally or potentially dangerous phenomena are expected. (such as local winds, summer thunderstorms, rising streams or high waves) Be aware and pay attention to the latest weather updates, especially if you carry out activities exposed to weather or close to a stream or shoreline. 


Meteo18 Weather Cam more information Meteo18 Weather Cam


Thunder radar more information blitzortung!


warning for Snow/Ice more information rain snow radar


Visit our other weather sites:

Template documentation
and downloads

And another site



Weather Underground History page Text

Daily Summary for July 23, 2017 Units:  Metric    English   Both
« Previous Day
Next Day »
Daily Weekly Monthly Yearly Custom
  High: Low: Average:
Temperature: 21.7 °C 13.3 °C 17.2 °C
Dew Point: 15.3 °C 11.4 °C 12.9 °C
Humidity: 93 % 54 % 77 %
Wind Speed: 27.4 km/h 0.0 km/h 8.3 km/h
Wind Gust: 32.2 km/h - -
Wind:- - SW
Pressure: 1020.2 hPa 1014.8 hPa -
Precipitation: 1.0 mm    
Historical Graphs
 
 
Tabular Data for July 23, 2017
Time Temperature Dew Point Pressure Wind Wind Speed Wind Gust Humidity Rainfall Rate (Hourly)
00:02 15.7 °C 12.6 °C 1017.5 hPa SW 6.4 km/h 17.7 km/h 82 % 0.0 mm
00:07 15.7 °C 12.6 °C 1017.5 hPa SW 6.4 km/h 17.7 km/h 82 % 0.0 mm
00:12 15.6 °C 12.5 °C 1017.5 hPa SW 8.0 km/h 17.7 km/h 82 % 0.0 mm
00:17 15.5 °C 12.4 °C 1017.8 hPa SW 8.0 km/h 16.1 km/h 82 % 0.0 mm
00:22 15.4 °C 12.3 °C 1017.8 hPa SW 8.0 km/h 16.1 km/h 82 % 0.0 mm
00:32 15.4 °C 12.5 °C 1017.8 hPa SW 9.7 km/h 17.7 km/h 83 % 0.0 mm
00:37 15.3 °C 12.4 °C 1017.8 hPa SSW 6.4 km/h 17.7 km/h 83 % 0.0 mm
00:42 15.3 °C 12.4 °C 1017.8 hPa SW 6.4 km/h 17.7 km/h 83 % 0.0 mm
00:47 15.2 °C 12.3 °C 1017.8 hPa SW 9.7 km/h 16.1 km/h 83 % 0.0 mm
00:52 15.1 °C 12.4 °C 1017.8 hPa SW 4.8 km/h 16.1 km/h 84 % 0.0 mm
00:57 15.1 °C 12.4 °C 1017.8 hPa SSW 3.2 km/h 16.1 km/h 84 % 0.0 mm
01:02 15.0 °C 12.3 °C 1018.2 hPa SW 4.8 km/h 16.1 km/h 84 % 0.0 mm
01:12 14.8 °C 12.3 °C 1018.2 hPa SW 1.6 km/h 12.9 km/h 85 % 0.0 mm
01:17 14.7 °C 12.2 °C 1018.2 hPa SSW 4.8 km/h 11.3 km/h 85 % 0.0 mm
01:22 14.7 °C 12.4 °C 1018.5 hPa SW 6.4 km/h 11.3 km/h 86 % 0.0 mm
01:27 14.6 °C 12.3 °C 1018.5 hPa WSW 3.2 km/h 14.5 km/h 86 % 0.0 mm
01:32 14.6 °C 12.5 °C 1018.5 hPa SW 8.0 km/h 14.5 km/h 87 % 0.0 mm
01:37 14.6 °C 12.5 °C 1018.5 hPa SW 6.4 km/h 16.1 km/h 87 % 0.0 mm
01:42 14.5 °C 12.4 °C 1018.5 hPa WSW 4.8 km/h 16.1 km/h 87 % 0.0 mm
01:47 14.4 °C 12.3 °C 1018.5 hPa SW 6.4 km/h 12.9 km/h 87 % 0.0 mm
01:52 14.4 °C 12.3 °C 1018.5 hPa WSW 6.4 km/h 12.9 km/h 87 % 0.0 mm
01:57 14.4 °C 12.4 °C 1018.5 hPa SW 4.8 km/h 12.9 km/h 88 % 0.0 mm
02:02 14.3 °C 12.3 °C 1018.8 hPa SW 4.8 km/h 12.9 km/h 88 % 0.0 mm
02:07 14.2 °C 12.2 °C 1018.5 hPa SW 4.8 km/h 11.3 km/h 88 % 0.0 mm
02:12 14.1 °C 12.1 °C 1018.5 hPa SW 6.4 km/h 11.3 km/h 88 % 0.0 mm
02:17 13.9 °C 12.1 °C 1018.5 hPa SSW 4.8 km/h 11.3 km/h 89 % 0.0 mm
02:22 13.8 °C 12.0 °C 1018.5 hPa SSW 1.6 km/h 11.3 km/h 89 % 0.0 mm
02:27 13.7 °C 11.9 °C 1018.5 hPa SW 4.8 km/h 9.7 km/h 89 % 0.0 mm
02:32 13.5 °C 11.9 °C 1018.8 hPa SSW 6.4 km/h 9.7 km/h 90 % 0.0 mm
02:42 13.3 °C 11.9 °C 1018.8 hPa SSW 4.8 km/h 6.4 km/h 91 % 0.0 mm
02:47 13.4 °C 12.0 °C 1018.8 hPa SW 8.0 km/h 9.7 km/h 91 % 0.0 mm
02:52 13.6 °C 12.2 °C 1018.8 hPa SSW 6.4 km/h 9.7 km/h 91 % 0.0 mm
02:57 13.7 °C 12.3 °C 1018.8 hPa SW 6.4 km/h 12.9 km/h 91 % 0.0 mm
03:02 13.7 °C 12.1 °C 1018.8 hPa WSW 8.0 km/h 12.9 km/h 90 % 0.0 mm
03:12 13.7 °C 12.1 °C 1018.8 hPa WSW 11.3 km/h 12.9 km/h 90 % 0.0 mm
03:17 13.8 °C 12.2 °C 1018.8 hPa SW 6.4 km/h 14.5 km/h 90 % 0.0 mm
03:22 13.8 °C 12.2 °C 1018.8 hPa SW 8.0 km/h 14.5 km/h 90 % 0.0 mm
03:27 13.7 °C 11.9 °C 1018.8 hPa SW 11.3 km/h 14.5 km/h 89 % 0.0 mm
03:32 13.7 °C 11.9 °C 1018.8 hPa SSW 9.7 km/h 14.5 km/h 89 % 0.0 mm
03:42 13.8 °C 12.0 °C 1018.8 hPa SW 4.8 km/h 12.9 km/h 89 % 0.0 mm
03:47 13.7 °C 11.9 °C 1018.8 hPa South 8.0 km/h 14.5 km/h 89 % 0.0 mm
03:52 13.7 °C 11.9 °C 1018.8 hPa SSW 4.8 km/h 14.5 km/h 89 % 0.0 mm
03:57 13.7 °C 11.9 °C 1018.8 hPa SW 4.8 km/h 12.9 km/h 89 % 0.0 mm
04:02 13.7 °C 11.9 °C 1018.8 hPa SW 6.4 km/h 12.9 km/h 89 % 0.0 mm
04:07 13.8 °C 12.0 °C 1018.8 hPa SSW 6.4 km/h 12.9 km/h 89 % 0.0 mm
04:12 13.9 °C 12.1 °C 1018.8 hPa SW 11.3 km/h 12.9 km/h 89 % 0.0 mm
04:17 13.9 °C 11.9 °C 1018.8 hPa SSW 4.8 km/h 16.1 km/h 88 % 0.0 mm
04:22 14.1 °C 12.1 °C 1018.8 hPa SW 11.3 km/h 16.1 km/h 88 % 0.0 mm
04:32 14.1 °C 12.3 °C 1018.8 hPa South 9.7 km/h 16.1 km/h 89 % 0.0 mm
04:37 14.2 °C 12.4 °C 1018.8 hPa WSW 6.4 km/h 12.9 km/h 89 % 0.0 mm
04:42 14.2 °C 12.4 °C 1018.8 hPa SSW 8.0 km/h 12.9 km/h 89 % 0.0 mm
04:47 14.3 °C 12.5 °C 1018.8 hPa SW 11.3 km/h 17.7 km/h 89 % 0.0 mm
04:52 14.3 °C 12.3 °C 1018.8 hPa SW 8.0 km/h 17.7 km/h 88 % 0.0 mm
04:57 14.4 °C 12.4 °C 1018.8 hPa SSW 6.4 km/h 17.7 km/h 88 % 0.0 mm
05:02 14.4 °C 12.4 °C 1018.8 hPa SSW 4.8 km/h 17.7 km/h 88 % 0.0 mm
05:12 14.5 °C 12.5 °C 1018.8 hPa SW 6.4 km/h 16.1 km/h 88 % 0.0 mm
05:17 14.6 °C 12.6 °C 1018.8 hPa SSW 8.0 km/h 12.9 km/h 88 % 0.0 mm
05:22 14.6 °C 12.6 °C 1018.8 hPa WSW 6.4 km/h 12.9 km/h 88 % 0.0 mm
05:32 14.6 °C 12.5 °C 1018.8 hPa SSW 4.8 km/h 14.5 km/h 87 % 0.0 mm
05:42 14.6 °C 12.5 °C 1018.8 hPa SW 6.4 km/h 14.5 km/h 87 % 0.0 mm
05:52 14.6 °C 12.5 °C 1018.8 hPa SW 11.3 km/h 14.5 km/h 87 % 0.0 mm
05:57 14.5 °C 12.4 °C 1018.8 hPa SW 8.0 km/h 12.9 km/h 87 % 0.0 mm
06:02 14.5 °C 12.5 °C 1019.2 hPa SW 9.7 km/h 12.9 km/h 88 % 0.0 mm
06:12 14.5 °C 12.5 °C 1019.2 hPa SW 4.8 km/h 12.9 km/h 88 % 0.0 mm
06:17 14.5 °C 12.5 °C 1019.2 hPa SSW 6.4 km/h 12.9 km/h 88 % 0.0 mm
06:22 14.4 °C 12.4 °C 1019.2 hPa SW 8.0 km/h 12.9 km/h 88 % 0.0 mm
06:32 14.6 °C 12.6 °C 1019.2 hPa SW 6.4 km/h 12.9 km/h 88 % 0.0 mm
06:42 14.7 °C 12.6 °C 1019.2 hPa SSW 6.4 km/h 14.5 km/h 87 % 0.0 mm
06:47 14.7 °C 12.4 °C 1019.2 hPa SW 4.8 km/h 14.5 km/h 86 % 0.0 mm
06:52 14.7 °C 12.4 °C 1019.2 hPa SW 3.2 km/h 14.5 km/h 86 % 0.0 mm
07:02 14.8 °C 12.5 °C 1019.2 hPa WSW 8.0 km/h 16.1 km/h 86 % 0.0 mm
07:12 14.8 °C 12.5 °C 1019.5 hPa SW 6.4 km/h 16.1 km/h 86 % 0.0 mm
07:22 14.8 °C 12.5 °C 1019.5 hPa WSW 11.3 km/h 16.1 km/h 86 % 0.0 mm
07:32 14.8 °C 12.5 °C 1019.5 hPa SW 8.0 km/h 12.9 km/h 86 % 0.0 mm
07:42 14.9 °C 12.6 °C 1019.5 hPa WSW 4.8 km/h 12.9 km/h 86 % 0.0 mm
07:47 14.9 °C 12.6 °C 1019.5 hPa SW 6.4 km/h 14.5 km/h 86 % 0.0 mm
07:52 14.9 °C 12.6 °C 1019.5 hPa SW 8.0 km/h 14.5 km/h 86 % 0.0 mm
08:02 15.1 °C 12.6 °C 1019.5 hPa West 6.4 km/h 14.5 km/h 85 % 0.0 mm
08:07 15.1 °C 12.6 °C 1019.5 hPa SSW 4.8 km/h 20.9 km/h 85 % 0.0 mm
08:12 15.2 °C 12.7 °C 1019.5 hPa SW 9.7 km/h 20.9 km/h 85 % 0.0 mm
08:17 15.2 °C 12.5 °C 1019.5 hPa WSW 4.8 km/h 20.9 km/h 84 % 0.0 mm
08:22 15.3 °C 12.6 °C 1019.9 hPa SW 8.0 km/h 20.9 km/h 84 % 0.0 mm
08:32 15.4 °C 12.7 °C 1019.9 hPa SW 8.0 km/h 19.3 km/h 84 % 0.0 mm
08:42 15.6 °C 12.9 °C 1019.9 hPa WSW 8.0 km/h 16.1 km/h 84 % 0.0 mm
08:52 15.6 °C 12.7 °C 1019.9 hPa West 6.4 km/h 16.1 km/h 83 % 0.0 mm
09:02 15.6 °C 12.7 °C 1019.9 hPa WSW 6.4 km/h 17.7 km/h 83 % 0.0 mm
09:07 15.7 °C 12.8 °C 1019.9 hPa West 6.4 km/h 17.7 km/h 83 % 0.0 mm
09:12 15.9 °C 13.0 °C 1019.9 hPa WSW 8.0 km/h 17.7 km/h 83 % 0.0 mm
09:17 16.1 °C 13.0 °C 1019.9 hPa SW 6.4 km/h 20.9 km/h 82 % 0.0 mm
09:22 16.3 °C 13.2 °C 1019.9 hPa WSW 17.7 km/h 20.9 km/h 82 % 0.0 mm
09:32 16.3 °C 12.5 °C 1019.9 hPa West 6.4 km/h 20.9 km/h 78 % 0.0 mm
09:42 16.5 °C 12.7 °C 1019.9 hPa WSW 11.3 km/h 24.1 km/h 78 % 0.0 mm
09:52 17.0 °C 12.9 °C 1019.9 hPa WSW 8.0 km/h 22.5 km/h 77 % 0.0 mm
10:02 16.8 °C 12.5 °C 1019.9 hPa West 8.0 km/h 20.9 km/h 76 % 0.0 mm
10:07 16.9 °C 12.8 °C 1019.9 hPa West 14.5 km/h 20.9 km/h 77 % 0.0 mm
10:12 16.9 °C 12.6 °C 1019.9 hPa SW 9.7 km/h 20.9 km/h 76 % 0.0 mm
10:22 17.0 °C 12.3 °C 1019.9 hPa WSW 8.0 km/h 20.9 km/h 74 % 0.0 mm
10:32 17.1 °C 12.6 °C 1019.9 hPa WSW 11.3 km/h 24.1 km/h 75 % 0.0 mm
10:42 17.6 °C 12.5 °C 1019.9 hPa SSW 8.0 km/h 22.5 km/h 72 % 0.0 mm
10:47 17.6 °C 12.7 °C 1019.9 hPa SW 6.4 km/h 24.1 km/h 73 % 0.0 mm
10:52 17.7 °C 12.4 °C 1019.9 hPa West 11.3 km/h 24.1 km/h 71 % 0.0 mm
11:02 17.7 °C 12.4 °C 1019.9 hPa WSW 19.3 km/h 24.1 km/h 71 % 0.0 mm
11:12 17.9 °C 12.6 °C 1019.9 hPa WSW 14.5 km/h 22.5 km/h 71 % 0.0 mm
11:17 17.9 °C 12.6 °C 1019.9 hPa SW 12.9 km/h 22.5 km/h 71 % 0.0 mm
11:22 17.7 °C 12.8 °C 1019.9 hPa WSW 12.9 km/h 22.5 km/h 73 % 0.0 mm
11:32 17.0 °C 13.1 °C 1020.2 hPa SW 8.0 km/h 20.9 km/h 78 % 0.0 mm
11:42 16.6 °C 13.1 °C 1019.9 hPa SW 16.1 km/h 24.1 km/h 80 % 0.0 mm
11:47 16.8 °C 13.1 °C 1020.2 hPa WSW 11.3 km/h 24.1 km/h 79 % 0.0 mm
11:52 17.3 °C 13.0 °C 1019.9 hPa WSW 22.5 km/h 24.1 km/h 76 % 0.0 mm
12:02 17.8 °C 12.9 °C 1019.9 hPa SW 9.7 km/h 30.6 km/h 73 % 0.0 mm
12:12 18.4 °C 13.0 °C 1019.9 hPa SW 8.0 km/h 32.2 km/h 71 % 0.0 mm
12:17 18.7 °C 13.1 °C 1019.9 hPa West 8.0 km/h 27.4 km/h 70 % 0.0 mm
12:22 18.8 °C 13.0 °C 1019.9 hPa West 12.9 km/h 27.4 km/h 69 % 0.0 mm
12:27 18.9 °C 12.6 °C 1019.9 hPa WSW 17.7 km/h 20.9 km/h 67 % 0.0 mm
12:32 18.6 °C 12.1 °C 1019.9 hPa West 16.1 km/h 20.9 km/h 66 % 0.0 mm
12:42 18.8 °C 12.5 °C 1019.9 hPa SW 6.4 km/h 25.7 km/h 67 % 0.0 mm
12:52 19.1 °C 12.6 °C 1019.9 hPa WNW 12.9 km/h 27.4 km/h 66 % 0.0 mm
13:02 18.9 °C 12.2 °C 1019.9 hPa SW 8.0 km/h 25.7 km/h 65 % 0.0 mm
13:12 19.9 °C 12.9 °C 1019.5 hPa SW 6.4 km/h 25.7 km/h 64 % 0.0 mm
13:17 19.9 °C 12.4 °C 1019.5 hPa West 8.0 km/h 22.5 km/h 62 % 0.0 mm
13:22 19.9 °C 12.4 °C 1019.5 hPa West 12.9 km/h 22.5 km/h 62 % 0.0 mm
13:32 20.4 °C 11.9 °C 1019.5 hPa SW 17.7 km/h 24.1 km/h 58 % 0.0 mm
13:37 20.3 °C 12.0 °C 1019.2 hPa WSW 6.4 km/h 20.9 km/h 59 % 0.0 mm
13:42 20.4 °C 12.1 °C 1019.5 hPa WSW 8.0 km/h 20.9 km/h 59 % 0.0 mm
13:52 20.5 °C 12.2 °C 1019.5 hPa West 6.4 km/h 25.7 km/h 59 % 0.0 mm
13:57 20.7 °C 12.4 °C 1019.5 hPa SSW 11.3 km/h 25.7 km/h 59 % 0.0 mm
14:02 20.4 °C 11.6 °C 1019.5 hPa SW 16.1 km/h 25.7 km/h 57 % 0.0 mm
14:12 20.7 °C 11.6 °C 1019.2 hPa WSW 27.4 km/h 27.4 km/h 56 % 0.0 mm
14:17 21.0 °C 11.9 °C 1019.2 hPa West 14.5 km/h 25.7 km/h 56 % 0.0 mm
14:22 21.2 °C 12.3 °C 1019.2 hPa West 11.3 km/h 25.7 km/h 57 % 0.0 mm
14:32 21.1 °C 12.0 °C 1019.2 hPa SW 8.0 km/h 27.4 km/h 56 % 0.0 mm
14:37 20.8 °C 11.7 °C 1019.2 hPa SW 14.5 km/h 29.0 km/h 56 % 0.0 mm
14:42 20.7 °C 11.6 °C 1019.2 hPa WSW 4.8 km/h 29.0 km/h 56 % 0.0 mm
14:47 20.8 °C 11.7 °C 1019.2 hPa West 8.0 km/h 19.3 km/h 56 % 0.0 mm
14:57 20.5 °C 11.4 °C 1019.2 hPa West 19.3 km/h 24.1 km/h 56 % 0.0 mm
15:02 20.5 °C 11.4 °C 1019.2 hPa SW 16.1 km/h 24.1 km/h 56 % 0.0 mm
15:07 20.4 °C 11.6 °C 1019.2 hPa West 12.9 km/h 24.1 km/h 57 % 0.0 mm
15:12 20.3 °C 11.5 °C 1018.8 hPa West 8.0 km/h 24.1 km/h 57 % 0.0 mm
15:17 20.2 °C 11.7 °C 1018.8 hPa West 8.0 km/h 24.1 km/h 58 % 0.0 mm
15:22 20.2 °C 11.9 °C 1018.8 hPa WNW 8.0 km/h 24.1 km/h 59 % 0.0 mm
15:27 20.3 °C 12.0 °C 1018.8 hPa West 9.7 km/h 22.5 km/h 59 % 0.0 mm
15:32 20.6 °C 12.0 °C 1018.8 hPa SW 6.4 km/h 22.5 km/h 58 % 0.0 mm
15:42 20.8 °C 12.0 °C 1018.8 hPa WSW 12.9 km/h 22.5 km/h 57 % 0.0 mm
15:47 21.0 °C 12.4 °C 1018.5 hPa SSW 8.0 km/h 20.9 km/h 58 % 0.0 mm
15:52 21.3 °C 11.9 °C 1018.5 hPa WSW 8.0 km/h 20.9 km/h 55 % 0.0 mm
15:57 21.3 °C 11.9 °C 1018.5 hPa West 8.0 km/h 19.3 km/h 55 % 0.0 mm
16:02 21.4 °C 12.0 °C 1018.5 hPa SW 12.9 km/h 19.3 km/h 55 % 0.0 mm
16:12 21.3 °C 11.9 °C 1018.5 hPa SW 9.7 km/h 24.1 km/h 55 % 0.0 mm
16:17 21.1 °C 12.0 °C 1018.2 hPa SW 8.0 km/h 24.1 km/h 56 % 0.0 mm
16:22 20.9 °C 11.8 °C 1018.2 hPa WSW 12.9 km/h 24.1 km/h 56 % 0.0 mm
16:27 20.9 °C 11.8 °C 1018.2 hPa WSW 9.7 km/h 19.3 km/h 56 % 0.0 mm
16:32 20.9 °C 12.1 °C 1018.2 hPa WSW 6.4 km/h 19.3 km/h 57 % 0.0 mm
16:37 20.9 °C 11.8 °C 1018.2 hPa WSW 16.1 km/h 25.7 km/h 56 % 0.0 mm
16:42 20.9 °C 12.1 °C 1018.2 hPa West 11.3 km/h 25.7 km/h 57 % 0.0 mm
16:47 20.9 °C 12.1 °C 1018.2 hPa West 9.7 km/h 25.7 km/h 57 % 0.0 mm
16:52 20.9 °C 12.3 °C 1018.2 hPa West 9.7 km/h 25.7 km/h 58 % 0.0 mm
16:57 21.1 °C 12.2 °C 1017.8 hPa WSW 17.7 km/h 19.3 km/h 57 % 0.0 mm
17:02 21.1 °C 12.0 °C 1017.8 hPa WSW 14.5 km/h 19.3 km/h 56 % 0.0 mm
17:12 21.4 °C 12.0 °C 1017.8 hPa WSW 9.7 km/h 19.3 km/h 55 % 0.0 mm
17:17 21.6 °C 12.2 °C 1017.8 hPa WSW 8.0 km/h 19.3 km/h 55 % 0.0 mm
17:22 21.7 °C 12.5 °C 1017.5 hPa West 11.3 km/h 19.3 km/h 56 % 0.0 mm
17:32 21.7 °C 12.0 °C 1017.5 hPa WSW 22.5 km/h 22.5 km/h 54 % 0.0 mm
17:37 21.6 °C 12.2 °C 1017.5 hPa SW 12.9 km/h 25.7 km/h 55 % 0.0 mm
17:42 21.7 °C 12.3 °C 1017.2 hPa West 9.7 km/h 25.7 km/h 55 % 0.0 mm
17:47 21.7 °C 12.3 °C 1017.2 hPa West 6.4 km/h 24.1 km/h 55 % 0.0 mm
17:52 21.5 °C 12.1 °C 1017.2 hPa SW 12.9 km/h 24.1 km/h 55 % 0.0 mm
17:57 21.5 °C 12.4 °C 1017.2 hPa WSW 6.4 km/h 29.0 km/h 56 % 0.0 mm
18:02 21.6 °C 12.4 °C 1017.2 hPa WSW 19.3 km/h 29.0 km/h 56 % 0.0 mm
18:12 21.5 °C 12.4 °C 1017.2 hPa West 4.8 km/h 25.7 km/h 56 % 0.0 mm
18:17 21.4 °C 12.5 °C 1017.2 hPa WSW 9.7 km/h 19.3 km/h 57 % 0.0 mm
18:22 21.3 °C 12.4 °C 1017.2 hPa WSW 19.3 km/h 25.7 km/h 57 % 0.0 mm
18:32 21.2 °C 12.6 °C 1017.2 hPa West 6.4 km/h 25.7 km/h 58 % 0.0 mm
18:37 21.0 °C 12.9 °C 1017.2 hPa SSW 4.8 km/h 25.7 km/h 60 % 0.0 mm
18:42 20.8 °C 12.7 °C 1017.2 hPa WNW 6.4 km/h 25.7 km/h 60 % 0.0 mm
18:47 20.6 °C 12.8 °C 1017.2 hPa WSW 12.9 km/h 25.7 km/h 61 % 0.0 mm
18:57 20.3 °C 13.3 °C 1017.2 hPa WSW 12.9 km/h 20.9 km/h 64 % 0.0 mm
19:02 20.0 °C 13.2 °C 1017.2 hPa West 14.5 km/h 20.9 km/h 65 % 0.0 mm
19:12 19.7 °C 13.6 °C 1017.5 hPa West 12.9 km/h 25.7 km/h 68 % 0.0 mm
19:22 19.1 °C 14.1 °C 1017.2 hPa SW 12.9 km/h 29.0 km/h 73 % 0.0 mm
19:32 18.9 °C 14.2 °C 1017.2 hPa WSW 11.3 km/h 27.4 km/h 74 % 0.0 mm
19:37 18.9 °C 14.2 °C 1017.2 hPa WSW 11.3 km/h 24.1 km/h 74 % 0.0 mm
19:42 18.8 °C 14.3 °C 1017.2 hPa WNW 4.8 km/h 24.1 km/h 75 % 0.0 mm
19:47 18.7 °C 14.4 °C 1017.2 hPa WSW 6.4 km/h 20.9 km/h 76 % 0.0 mm
19:52 18.7 °C 14.4 °C 1017.2 hPa West 4.8 km/h 20.9 km/h 76 % 0.0 mm
19:57 18.6 °C 14.3 °C 1017.2 hPa WSW 9.7 km/h 11.3 km/h 76 % 0.0 mm
20:02 18.4 °C 14.5 °C 1017.2 hPa West 9.7 km/h 11.3 km/h 78 % 0.0 mm
20:12 18.2 °C 14.7 °C 1017.2 hPa WSW 12.9 km/h 17.7 km/h 80 % 0.0 mm
20:17 17.9 °C 14.4 °C 1016.8 hPa SW 8.0 km/h 16.1 km/h 80 % 0.0 mm
20:22 17.8 °C 14.5 °C 1016.8 hPa SW 8.0 km/h 16.1 km/h 81 % 0.0 mm
20:32 17.7 °C 14.6 °C 1016.5 hPa WSW 4.8 km/h 20.9 km/h 82 % 0.0 mm
20:37 17.7 °C 14.6 °C 1016.5 hPa WSW 1.6 km/h 16.1 km/h 82 % 0.0 mm
20:47 17.6 °C 14.7 °C 1016.5 hPa West 4.8 km/h 11.3 km/h 83 % 0.0 mm
20:57 17.4 °C 14.7 °C 1016.1 hPa Calm   6.4 km/h 84 % 0.0 mm
21:02 17.4 °C 14.7 °C 1016.1 hPa WSW 1.6 km/h 6.4 km/h 84 % 0.0 mm
21:07 17.4 °C 14.9 °C 1016.1 hPa SW 3.2 km/h 6.4 km/h 85 % 0.0 mm
21:12 17.4 °C 14.9 °C 1016.1 hPa West 1.6 km/h 6.4 km/h 85 % 0.0 mm
21:17 17.4 °C 14.9 °C 1016.1 hPa SW 1.6 km/h 6.4 km/h 85 % 0.0 mm
21:22 17.4 °C 14.9 °C 1015.8 hPa Calm   6.4 km/h 85 % 0.0 mm
21:32 17.3 °C 14.8 °C 1015.8 hPa Calm   1.6 km/h 85 % 0.0 mm
21:37 17.3 °C 14.9 °C 1015.8 hPa SSW 3.2 km/h 4.8 km/h 86 % 0.0 mm
21:42 17.2 °C 14.8 °C 1015.8 hPa SSW 1.6 km/h 4.8 km/h 86 % 0.0 mm
21:47 17.2 °C 15.0 °C 1015.8 hPa SW 1.6 km/h 6.4 km/h 87 % 0.0 mm
21:52 17.1 °C 15.1 °C 1015.8 hPa SSW 1.6 km/h 6.4 km/h 88 % 0.0 mm
21:57 17.0 °C 15.0 °C 1015.8 hPa SE 4.8 km/h 6.4 km/h 88 % 0.0 mm
22:02 16.9 °C 14.9 °C 1015.8 hPa SW 8.0 km/h 8.0 km/h 88 % 0.0 mm
22:12 16.9 °C 14.9 °C 1015.8 hPa SSW 4.8 km/h 12.9 km/h 88 % 0.0 mm
22:17 16.9 °C 15.1 °C 1015.8 hPa SW 3.2 km/h 12.9 km/h 89 % 0.0 mm
22:22 16.8 °C 15.0 °C 1015.8 hPa SSW 3.2 km/h 12.9 km/h 89 % 0.0 mm
22:27 16.8 °C 15.0 °C 1015.8 hPa SW 6.4 km/h 9.7 km/h 89 % 0.0 mm
22:32 16.8 °C 15.1 °C 1015.8 hPa SSW 4.8 km/h 9.7 km/h 90 % 0.0 mm
22:37 16.7 °C 15.1 °C 1015.8 hPa SSW 3.2 km/h 9.7 km/h 90 % 0.0 mm
22:42 16.6 °C 15.1 °C 1015.5 hPa SSW 4.8 km/h 9.7 km/h 91 % 0.0 mm
22:52 16.5 °C 15.2 °C 1015.5 hPa SSW 4.8 km/h 8.0 km/h 92 % 0.0 mm
22:57 16.4 °C 15.1 °C 1015.5 hPa SW 6.4 km/h 6.4 km/h 92 % 0.3 mm
23:02 16.4 °C 15.1 °C 1015.5 hPa SSW 3.2 km/h 6.4 km/h 92 % 0.3 mm
23:07 16.4 °C 15.3 °C 1015.1 hPa SSW 8.0 km/h 8.0 km/h 93 % 0.3 mm
23:12 16.4 °C 15.3 °C 1015.1 hPa SSW 6.4 km/h 8.0 km/h 93 % 0.3 mm
23:17 16.4 °C 15.3 °C 1015.1 hPa SW 4.8 km/h 14.5 km/h 93 % 0.5 mm
23:22 16.3 °C 15.0 °C 1015.1 hPa SW 8.0 km/h 14.5 km/h 92 % 0.5 mm
23:32 16.3 °C 15.2 °C 1014.8 hPa SW 3.2 km/h 14.5 km/h 93 % 0.8 mm
23:37 16.3 °C 15.2 °C 1015.1 hPa SW 6.4 km/h 12.9 km/h 93 % 1.0 mm
23:47 16.2 °C 15.1 °C 1014.8 hPa WSW 3.2 km/h 14.5 km/h 93 % 1.0 mm
23:52 16.2 °C 15.1 °C 1014.8 hPa WSW 6.4 km/h 14.5 km/h 93 % 1.0 mm
Meteo18
Compliments of Weather Underground - 4 mb

Script developed by  Jim McMurry - jmcmurry@mwt.net Adapted for the template by  Wim van der Kuil - Leuven-Template.eu

You find our weather info also at:

European Weather Network

Weather Underground

Equipment we use:

Weather-station
Davis Vue

Weather-program
Meteohub

Weather-server
Raspberry PI 2 B+

Provider
1 and 1

Davis Vue

Meteohub

Raspberry PI 2 B+

1 and 1